createdAt,value
2023-02-19T00:02:02.422Z,11.55
2023-02-19T00:04:31.840Z,11.68
2023-02-19T00:07:01.531Z,11.65
2023-02-19T00:09:28.269Z,11.62
2023-02-19T00:11:57.518Z,11.66
2023-02-19T00:14:27.229Z,11.59
2023-02-19T00:16:53.913Z,11.66
2023-02-19T00:23:06.028Z,11.52
2023-02-19T00:25:38.621Z,11.46
2023-02-19T00:28:05.674Z,11.42
2023-02-19T00:30:35.659Z,11.34
2023-02-19T00:33:04.656Z,11.29
2023-02-19T00:35:37.058Z,11.34
2023-02-19T00:38:04.926Z,11.42
2023-02-19T00:40:33.123Z,11.34
2023-02-19T00:43:02.238Z,11.48
2023-02-19T00:45:31.786Z,11.47
2023-02-19T00:48:00.824Z,11.33
2023-02-19T00:50:27.371Z,11.49
2023-02-19T00:52:59.639Z,11.32
2023-02-19T00:55:28.703Z,11.24
2023-02-19T00:57:55.308Z,11.38
2023-02-19T01:00:22.050Z,11.34
2023-02-19T01:02:51.463Z,11.45
2023-02-19T01:05:20.271Z,11.44
2023-02-19T01:07:46.878Z,11.53
2023-02-19T01:10:13.450Z,11.54
2023-02-19T01:12:40.121Z,11.59
2023-02-19T01:15:09.584Z,11.41
2023-02-19T01:17:38.930Z,11.45
2023-02-19T01:20:05.927Z,11.38
2023-02-19T01:22:32.780Z,11.39
2023-02-19T01:24:59.485Z,11.43
2023-02-19T01:27:28.359Z,11.36
2023-02-19T01:29:55.008Z,11.44
2023-02-19T01:32:24.061Z,11.52
2023-02-19T01:34:50.658Z,11.49
2023-02-19T01:37:17.381Z,11.41
2023-02-19T01:39:44.071Z,11.53
2023-02-19T01:42:19.033Z,11.46
2023-02-19T01:44:48.146Z,11.45
2023-02-19T01:47:21.769Z,11.33
2023-02-19T01:49:58.660Z,11.46
2023-02-19T01:52:34.067Z,11.35
2023-02-19T01:55:09.909Z,11.36
2023-02-19T01:57:42.566Z,11.39
2023-02-19T02:00:14.472Z,11.42
2023-02-19T02:02:45.931Z,11.28
2023-02-19T02:05:53.801Z,11.21
2023-02-19T02:08:42.458Z,11.22
2023-02-19T02:11:11.676Z,11.23
2023-02-19T02:13:40.496Z,11.11
2023-02-19T02:16:28.263Z,11.15
2023-02-19T02:19:10.034Z,11.06
2023-02-19T02:22:04.728Z,10.95
2023-02-19T02:24:51.991Z,10.99
2023-02-19T02:27:41.032Z,10.97
2023-02-19T02:30:34.849Z,11.04
2023-02-19T02:33:26.678Z,11.16
2023-02-19T02:35:58.308Z,11.07
2023-02-19T02:38:31.078Z,11.02
2023-02-19T02:41:00.515Z,10.96
2023-02-19T02:43:27.397Z,11.10
2023-02-19T02:45:57.370Z,11.16
2023-02-19T02:48:44.990Z,10.93
2023-02-19T02:51:14.663Z,10.91
2023-02-19T02:54:14.175Z,11.02
2023-02-19T02:56:45.298Z,10.93
2023-02-19T02:59:14.805Z,11.02
2023-02-19T03:02:11.877Z,11.10
2023-02-19T03:05:11.396Z,10.99
2023-02-19T03:08:10.104Z,10.85
2023-02-19T03:10:43.320Z,10.86
2023-02-19T03:13:40.808Z,11.06
2023-02-19T03:16:51.434Z,10.81
2023-02-19T03:19:22.728Z,10.91
2023-02-19T03:22:09.984Z,11.03
2023-02-19T03:25:04.349Z,11.02
2023-02-19T03:27:33.951Z,10.88
2023-02-19T03:30:09.750Z,10.71
2023-02-19T03:33:08.337Z,10.70
2023-02-19T03:36:00.367Z,10.68
2023-02-19T03:38:37.340Z,10.69
2023-02-19T03:41:12.382Z,10.72
2023-02-19T03:43:52.460Z,10.69
2023-02-19T03:46:37.051Z,10.69
2023-02-19T03:49:12.894Z,10.63
2023-02-19T03:51:55.378Z,10.46
2023-02-19T03:54:40.269Z,10.41
2023-02-19T03:57:23.395Z,10.26
2023-02-19T04:00:04.313Z,9.85
2023-02-19T04:02:41.451Z,10.07
2023-02-19T04:05:14.621Z,10.18
2023-02-19T04:07:46.614Z,10.11
2023-02-19T04:10:26.144Z,10.13
2023-02-19T04:13:04.616Z,10.17
2023-02-19T04:15:34.397Z,10.29
2023-02-19T04:18:09.314Z,10.35
2023-02-19T04:20:42.769Z,10.51
2023-02-19T04:23:09.683Z,10.57
2023-02-19T04:25:45.622Z,10.37
2023-02-19T04:28:19.562Z,10.36
2023-02-19T04:30:47.034Z,10.46
2023-02-19T04:33:13.920Z,10.46
2023-02-19T04:35:43.112Z,10.42
2023-02-19T04:38:12.352Z,10.47
2023-02-19T04:40:40.249Z,10.39
2023-02-19T04:43:11.671Z,10.34
2023-02-19T04:45:40.768Z,10.24
2023-02-19T04:48:07.270Z,10.15
2023-02-19T04:50:33.878Z,9.96
2023-02-19T04:53:05.480Z,9.75
2023-02-19T04:55:32.450Z,9.76
2023-02-19T04:58:04.296Z,9.87
2023-02-19T05:00:31.491Z,9.82
2023-02-19T05:03:01.173Z,9.81
2023-02-19T05:05:30.638Z,9.85
2023-02-19T05:07:59.905Z,9.59
2023-02-19T05:10:28.745Z,9.67
2023-02-19T05:13:00.520Z,9.53
2023-02-19T05:15:29.553Z,9.48
2023-02-19T05:17:56.474Z,9.50
2023-02-19T05:20:23.166Z,9.68
2023-02-19T05:22:52.154Z,9.79
2023-02-19T05:25:18.816Z,9.78
2023-02-19T05:27:47.780Z,9.82
2023-02-19T05:30:14.506Z,9.88
2023-02-19T05:32:44.019Z,9.94
2023-02-19T05:35:13.655Z,9.77
2023-02-19T05:37:43.317Z,9.78
2023-02-19T05:40:10.307Z,9.79
2023-02-19T05:42:39.192Z,9.72
2023-02-19T05:45:08.898Z,9.73
2023-02-19T05:47:35.493Z,9.74
2023-02-19T05:50:04.553Z,9.68
2023-02-19T05:52:31.027Z,9.63
2023-02-19T05:55:00.812Z,9.63
2023-02-19T05:57:32.475Z,9.59
2023-02-19T05:59:59.107Z,9.50
2023-02-19T06:02:34.577Z,9.38
2023-02-19T06:05:01.280Z,9.31
2023-02-19T06:07:30.230Z,9.20
2023-02-19T06:09:56.987Z,9.31
2023-02-19T06:12:26.064Z,9.35
2023-02-19T06:14:52.641Z,9.49
2023-02-19T06:17:21.360Z,9.36
2023-02-19T06:19:48.162Z,9.35
2023-02-19T06:22:16.181Z,9.08
2023-02-19T06:24:43.231Z,9.32
2023-02-19T06:27:10.140Z,9.68
2023-02-19T06:29:39.475Z,9.82
2023-02-19T06:32:09.310Z,9.79
2023-02-19T06:34:36.527Z,9.83
2023-02-19T06:37:08.070Z,9.78
2023-02-19T06:39:37.055Z,9.85
2023-02-19T06:42:03.863Z,9.81
2023-02-19T06:44:32.942Z,9.64
2023-02-19T06:47:02.043Z,9.11
2023-02-19T06:49:31.267Z,9.49
2023-02-19T06:52:02.323Z,9.10
2023-02-19T06:54:31.554Z,9.36
2023-02-19T06:57:00.665Z,9.24
2023-02-19T06:59:27.267Z,9.45
2023-02-19T07:01:54.022Z,9.37
2023-02-19T07:04:20.671Z,9.40
2023-02-19T07:06:47.243Z,9.25
2023-02-19T07:09:14.047Z,9.27
2023-02-19T07:11:43.534Z,8.95
2023-02-19T07:14:17.989Z,9.27
2023-02-19T07:16:47.452Z,9.26
2023-02-19T07:19:16.810Z,9.45
2023-02-19T07:21:48.554Z,9.49
2023-02-19T07:24:21.721Z,9.30
2023-02-19T07:26:50.806Z,9.36
2023-02-19T07:29:17.382Z,9.31
2023-02-19T07:31:44.316Z,9.37
2023-02-19T07:34:11.034Z,9.38
2023-02-19T07:36:40.588Z,9.47
2023-02-19T07:39:15.854Z,9.47
2023-02-19T07:41:45.025Z,9.24
2023-02-19T07:44:13.768Z,9.26
2023-02-19T07:46:40.386Z,9.23
2023-02-19T07:49:07.328Z,8.96
2023-02-19T07:51:36.157Z,9.25
2023-02-19T07:54:05.506Z,9.26
2023-02-19T07:56:34.281Z,9.48
2023-02-19T07:59:03.592Z,9.56
2023-02-19T08:02:06.077Z,9.65
2023-02-19T08:04:36.095Z,9.85
2023-02-19T08:07:05.995Z,9.89
2023-02-19T08:09:33.888Z,10.02
2023-02-19T08:12:32.215Z,10.00
2023-02-19T08:15:00.986Z,10.26
2023-02-19T08:17:27.770Z,10.05
2023-02-19T08:19:54.482Z,10.08
2023-02-19T08:22:23.805Z,9.91
2023-02-19T08:24:52.721Z,9.97
2023-02-19T08:27:21.710Z,9.78
2023-02-19T08:29:48.306Z,9.70
2023-02-19T08:32:14.957Z,9.49
2023-02-19T08:34:41.649Z,9.55
2023-02-19T08:37:08.212Z,9.55
2023-02-19T08:39:37.357Z,9.74
2023-02-19T08:42:03.989Z,9.63
2023-02-19T08:44:30.533Z,9.70
2023-02-19T08:46:57.225Z,10.06
2023-02-19T08:49:27.172Z,9.96
2023-02-19T08:51:56.331Z,9.77
2023-02-19T08:54:25.411Z,9.66
2023-02-19T08:56:54.618Z,9.72
2023-02-19T08:59:21.280Z,9.68
2023-02-19T09:01:50.082Z,9.71
2023-02-19T09:04:16.700Z,9.68
2023-02-19T09:06:51.111Z,9.82
2023-02-19T09:09:18.063Z,10.01
2023-02-19T09:11:44.852Z,10.03
2023-02-19T09:14:13.769Z,10.05
2023-02-19T09:16:42.901Z,10.12
2023-02-19T09:19:09.764Z,10.02
2023-02-19T09:21:38.441Z,10.11
2023-02-19T09:24:08.831Z,10.00
2023-02-19T09:26:38.745Z,9.89
2023-02-19T09:29:05.514Z,9.79
2023-02-19T09:31:37.447Z,9.86
2023-02-19T09:34:05.845Z,9.83
2023-02-19T09:36:35.320Z,9.72
2023-02-19T09:39:06.708Z,9.87
2023-02-19T09:41:37.940Z,9.84
2023-02-19T09:44:09.781Z,9.97
2023-02-19T09:46:44.104Z,10.12
2023-02-19T09:49:15.929Z,9.75
2023-02-19T09:51:54.027Z,9.95
2023-02-19T09:54:26.409Z,9.94
2023-02-19T09:56:59.967Z,10.10
2023-02-19T09:59:44.846Z,10.05
2023-02-19T10:02:31.607Z,10.20
2023-02-19T10:05:01.803Z,10.21
2023-02-19T10:07:50.375Z,10.45
2023-02-19T10:10:17.952Z,10.51
2023-02-19T10:12:51.189Z,10.52
2023-02-19T10:15:28.059Z,10.60
2023-02-19T10:17:57.541Z,10.80
2023-02-19T10:20:30.208Z,11.19
2023-02-19T10:23:09.312Z,11.22
2023-02-19T10:25:41.509Z,11.29
2023-02-19T10:28:15.169Z,11.47
2023-02-19T10:30:41.887Z,11.64
2023-02-19T10:33:15.253Z,11.83
2023-02-19T10:35:56.228Z,11.98
2023-02-19T10:38:46.968Z,12.11
2023-02-19T10:41:21.388Z,12.20
2023-02-19T10:43:56.390Z,12.18
2023-02-19T10:46:35.930Z,12.14
2023-02-19T10:49:12.917Z,12.20
2023-02-19T10:51:41.480Z,12.22
2023-02-19T10:54:18.426Z,12.38
2023-02-19T10:56:47.314Z,12.47
2023-02-19T10:59:30.076Z,12.73
2023-02-19T11:02:02.571Z,12.92
2023-02-19T11:04:34.226Z,13.09
2023-02-19T11:07:19.635Z,13.22
2023-02-19T11:09:53.923Z,13.34
2023-02-19T11:12:29.589Z,13.35
2023-02-19T11:15:00.638Z,13.63
2023-02-19T11:17:31.402Z,13.69
2023-02-19T11:20:07.619Z,13.85
2023-02-19T11:22:37.517Z,13.89
2023-02-19T11:25:09.994Z,13.85
2023-02-19T11:28:08.212Z,13.64
2023-02-19T11:30:45.869Z,13.63
2023-02-19T11:33:27.559Z,13.70
2023-02-19T11:36:17.986Z,13.72
2023-02-19T11:38:47.298Z,13.80
2023-02-19T11:41:35.408Z,13.81
2023-02-19T11:44:12.499Z,13.67
2023-02-19T11:46:42.175Z,13.76
2023-02-19T11:49:25.289Z,13.73
2023-02-19T11:52:12.067Z,13.90
2023-02-19T11:54:57.906Z,14.00
2023-02-19T11:57:27.378Z,14.23
2023-02-19T12:00:12.676Z,14.08
2023-02-19T12:02:54.275Z,14.03
2023-02-19T12:05:35.488Z,14.09
2023-02-19T12:08:13.921Z,14.21
2023-02-19T12:11:05.535Z,14.37
2023-02-19T12:14:07.804Z,14.15
2023-02-19T12:16:39.583Z,14.40
2023-02-19T12:19:37.649Z,14.05
2023-02-19T12:22:19.173Z,14.16
2023-02-19T12:25:30.645Z,14.36
2023-02-19T12:28:29.206Z,14.45
2023-02-19T12:31:13.930Z,14.50
2023-02-19T12:34:51.728Z,14.52
2023-02-19T12:37:46.300Z,14.25
2023-02-19T12:40:22.116Z,14.20
2023-02-19T12:43:07.813Z,14.23
2023-02-19T12:45:46.860Z,14.38
2023-02-19T12:48:34.196Z,14.45
2023-02-19T12:51:25.615Z,14.58
2023-02-19T12:54:13.847Z,14.42
2023-02-19T12:56:45.812Z,14.49
2023-02-19T12:59:23.798Z,14.38
2023-02-19T13:02:26.930Z,13.55
2023-02-19T13:05:11.266Z,12.68
2023-02-19T13:07:59.829Z,11.83
2023-02-19T13:10:37.733Z,12.06
2023-02-19T13:13:12.540Z,12.10
2023-02-19T13:15:46.465Z,12.45
2023-02-19T13:18:19.017Z,12.56
2023-02-19T13:20:51.890Z,12.71
2023-02-19T13:23:48.704Z,13.07
2023-02-19T13:26:21.323Z,13.38
2023-02-19T13:29:06.428Z,13.56
2023-02-19T13:31:42.245Z,13.81
2023-02-19T13:34:24.303Z,13.90
2023-02-19T13:36:51.354Z,13.81
2023-02-19T13:39:22.648Z,13.86
2023-02-19T13:41:55.077Z,13.85
2023-02-19T13:44:33.605Z,13.62
2023-02-19T13:47:06.479Z,13.75
2023-02-19T13:49:34.010Z,13.57
2023-02-19T13:52:22.240Z,13.44
2023-02-19T13:54:48.860Z,13.33
2023-02-19T13:57:28.291Z,12.98
2023-02-19T13:59:58.581Z,12.12
2023-02-19T14:02:32.359Z,11.08
2023-02-19T14:05:03.628Z,10.34
2023-02-19T14:07:51.205Z,9.76
2023-02-19T14:10:36.651Z,9.32
2023-02-19T14:13:06.117Z,9.35
2023-02-19T14:15:52.551Z,9.44
2023-02-19T14:18:45.485Z,9.55
2023-02-19T14:21:43.847Z,9.51
2023-02-19T14:24:17.385Z,9.51
2023-02-19T14:26:47.429Z,9.42
2023-02-19T14:29:17.722Z,9.61
2023-02-19T14:31:46.117Z,9.75
2023-02-19T14:34:22.731Z,9.72
2023-02-19T14:37:02.239Z,9.83
2023-02-19T14:39:35.204Z,9.65
2023-02-19T14:42:17.864Z,9.70
2023-02-19T14:44:52.546Z,9.95
2023-02-19T14:47:22.755Z,10.06
2023-02-19T14:49:55.138Z,10.13
2023-02-19T14:52:25.118Z,10.32
2023-02-19T14:55:00.312Z,10.04
2023-02-19T14:57:43.470Z,10.00
2023-02-19T15:00:22.409Z,9.68
2023-02-19T15:02:59.898Z,9.69
2023-02-19T15:05:40.272Z,9.59
2023-02-19T15:08:12.038Z,9.73
2023-02-19T15:10:42.163Z,9.64
2023-02-19T15:13:17.800Z,9.63
2023-02-19T15:15:49.948Z,9.72
2023-02-19T15:18:30.011Z,9.76
2023-02-19T15:21:02.893Z,9.72
2023-02-19T15:23:31.481Z,9.79
2023-02-19T15:25:59.215Z,9.51
2023-02-19T15:28:28.703Z,9.57
2023-02-19T15:30:58.329Z,9.57
2023-02-19T15:33:32.320Z,9.64
2023-02-19T15:36:03.525Z,9.75
2023-02-19T15:38:30.999Z,9.33
2023-02-19T15:40:58.805Z,9.33
2023-02-19T15:43:33.887Z,9.56
2023-02-19T15:46:12.065Z,9.50
2023-02-19T15:48:47.724Z,9.43
2023-02-19T15:51:24.090Z,9.43
2023-02-19T15:53:59.022Z,9.41
2023-02-19T15:56:32.550Z,9.47
2023-02-19T15:59:21.584Z,9.35
2023-02-19T16:01:48.974Z,9.33
2023-02-19T16:04:23.058Z,9.32
2023-02-19T16:06:55.585Z,9.25
2023-02-19T16:09:31.318Z,9.44
2023-02-19T16:12:03.041Z,9.46
2023-02-19T16:14:34.516Z,9.58
2023-02-19T16:17:28.161Z,9.71
2023-02-19T16:20:00.885Z,9.65
2023-02-19T16:22:34.776Z,9.52
2023-02-19T16:25:04.914Z,9.73
2023-02-19T16:27:37.011Z,9.79
2023-02-19T16:30:07.799Z,9.70
2023-02-19T16:32:34.673Z,9.73
2023-02-19T16:35:01.339Z,9.61
2023-02-19T16:37:40.834Z,9.67
2023-02-19T16:40:11.115Z,9.63
2023-02-19T16:43:13.300Z,9.80
2023-02-19T16:45:50.531Z,9.63
2023-02-19T16:48:20.303Z,9.31
2023-02-19T16:50:46.990Z,9.19
2023-02-19T16:53:24.790Z,9.10
2023-02-19T16:55:52.539Z,9.11
2023-02-19T16:58:21.545Z,8.90
2023-02-19T17:00:48.166Z,8.94
2023-02-19T17:03:22.570Z,8.92
2023-02-19T17:05:54.489Z,8.87
2023-02-19T17:08:33.888Z,8.90
2023-02-19T17:11:24.750Z,8.95
2023-02-19T17:13:51.512Z,8.83
2023-02-19T17:16:21.849Z,8.71
2023-02-19T17:18:51.879Z,8.58
2023-02-19T17:21:21.093Z,8.71
2023-02-19T17:23:47.546Z,8.63
2023-02-19T17:26:15.532Z,8.67
2023-02-19T17:28:42.157Z,8.75
2023-02-19T17:31:11.319Z,8.65
2023-02-19T17:33:38.896Z,8.65
2023-02-19T17:36:06.148Z,8.79
2023-02-19T17:38:34.801Z,8.70
2023-02-19T17:41:03.982Z,8.71
2023-02-19T17:43:30.558Z,8.80
2023-02-19T17:45:57.359Z,8.44
2023-02-19T17:48:24.419Z,8.58
2023-02-19T17:50:52.382Z,8.60
2023-02-19T17:53:21.236Z,8.67
2023-02-19T17:55:47.862Z,8.49
2023-02-19T17:58:17.209Z,8.68
2023-02-19T18:00:46.259Z,8.62
2023-02-19T18:03:15.524Z,8.59
2023-02-19T18:05:44.808Z,8.56
2023-02-19T18:08:11.946Z,8.68
2023-02-19T18:10:38.623Z,8.65
2023-02-19T18:13:07.558Z,8.65
2023-02-19T18:15:36.634Z,8.62
2023-02-19T18:18:09.883Z,8.68
2023-02-19T18:20:41.597Z,8.61
2023-02-19T18:23:10.785Z,8.59
2023-02-19T18:25:37.449Z,8.67
2023-02-19T18:28:06.558Z,8.57
2023-02-19T18:30:35.469Z,8.49
2023-02-19T18:33:07.468Z,8.65
2023-02-19T18:35:34.923Z,8.66
2023-02-19T18:38:03.782Z,8.58
2023-02-19T18:40:32.870Z,8.56
2023-02-19T18:43:01.798Z,8.50
2023-02-19T18:45:29.829Z,8.35
2023-02-19T18:47:59.205Z,8.34
2023-02-19T18:50:28.771Z,8.31
2023-02-19T18:53:00.270Z,8.33
2023-02-19T18:55:29.216Z,8.19
2023-02-19T18:57:58.560Z,8.30
2023-02-19T19:04:17.739Z,8.66
2023-02-19T19:06:46.841Z,8.57
2023-02-19T19:09:15.704Z,8.37
2023-02-19T19:11:44.551Z,8.50
2023-02-19T19:14:11.374Z,8.55
2023-02-19T19:16:43.195Z,8.67
2023-02-19T19:19:11.047Z,8.65
2023-02-19T19:21:37.942Z,8.62
2023-02-19T19:24:05.008Z,8.69
2023-02-19T19:26:32.152Z,8.81
2023-02-19T19:28:58.927Z,8.42
2023-02-19T19:31:26.367Z,8.55
2023-02-19T19:33:55.656Z,8.22
2023-02-19T19:36:25.747Z,8.10
2023-02-19T19:38:52.580Z,8.34
2023-02-19T19:41:20.336Z,8.34
2023-02-19T19:43:51.965Z,8.28
2023-02-19T19:46:19.957Z,8.14
2023-02-19T19:48:48.037Z,7.92
2023-02-19T19:51:14.941Z,7.86
2023-02-19T19:53:47.426Z,7.90
2023-02-19T19:56:14.652Z,7.81
2023-02-19T19:58:45.817Z,7.72
2023-02-19T20:01:12.826Z,7.65
2023-02-19T20:03:42.208Z,7.61
2023-02-19T20:06:08.665Z,7.49
2023-02-19T20:08:35.820Z,7.64
2023-02-19T20:11:03.385Z,7.47
2023-02-19T20:13:31.112Z,7.52
2023-02-19T20:16:00.129Z,7.59
2023-02-19T20:18:27.625Z,7.48
2023-02-19T20:20:54.217Z,7.31
2023-02-19T20:23:20.889Z,7.40
2023-02-19T20:25:49.967Z,7.43
2023-02-19T20:28:17.017Z,7.38
2023-02-19T20:30:43.899Z,7.17
2023-02-19T20:33:10.770Z,7.12
2023-02-19T20:35:40.722Z,7.08
2023-02-19T20:38:09.648Z,7.20
2023-02-19T20:40:36.316Z,7.13
2023-02-19T20:43:05.270Z,7.04
2023-02-19T20:45:34.045Z,6.95
2023-02-19T20:48:01.402Z,6.94
2023-02-19T20:50:30.359Z,6.93
2023-02-19T20:52:59.711Z,6.78
2023-02-19T20:55:29.774Z,6.86
2023-02-19T20:57:58.879Z,7.00
2023-02-19T21:00:28.103Z,7.06
2023-02-19T21:02:57.034Z,7.10
2023-02-19T21:05:26.299Z,7.06
2023-02-19T21:07:55.634Z,7.04
2023-02-19T21:10:27.128Z,6.94
2023-02-19T21:12:54.530Z,6.89
2023-02-19T21:15:23.900Z,6.42
2023-02-19T21:17:50.567Z,6.47
2023-02-19T21:20:22.798Z,6.33
2023-02-19T21:22:51.636Z,6.42
2023-02-19T21:25:20.941Z,6.23
2023-02-19T21:27:47.526Z,5.96
2023-02-19T21:30:16.501Z,5.93
2023-02-19T21:32:43.191Z,5.79
2023-02-19T21:35:10.247Z,5.61
2023-02-19T21:37:41.984Z,5.63
2023-02-19T21:40:11.806Z,5.49
2023-02-19T21:42:38.563Z,5.48
2023-02-19T21:45:05.762Z,5.30
2023-02-19T21:47:32.472Z,5.30
2023-02-19T21:50:01.425Z,5.20
2023-02-19T21:52:31.522Z,5.34
2023-02-19T21:54:58.542Z,5.30
2023-02-19T21:57:27.327Z,5.14
2023-02-19T21:59:56.809Z,5.10
2023-02-19T22:02:25.766Z,5.04
2023-02-19T22:04:53.734Z,5.07
2023-02-19T22:07:30.708Z,5.08
2023-02-19T22:09:59.676Z,5.00
2023-02-19T22:12:28.646Z,4.94
2023-02-19T22:14:57.646Z,4.83
2023-02-19T22:17:24.321Z,4.77
2023-02-19T22:19:50.941Z,4.78
2023-02-19T22:22:17.569Z,4.69
2023-02-19T22:24:44.468Z,4.68
2023-02-19T22:27:13.590Z,4.78
2023-02-19T22:29:40.320Z,4.64
2023-02-19T22:32:07.367Z,4.50
2023-02-19T22:34:43.189Z,4.43
2023-02-19T22:37:13.051Z,4.44
2023-02-19T22:39:39.831Z,4.43
2023-02-19T22:42:06.640Z,4.39
2023-02-19T22:44:34.500Z,4.34
2023-02-19T22:47:01.114Z,4.32
2023-02-19T22:49:27.685Z,4.28
2023-02-19T22:52:03.574Z,4.35
2023-02-19T22:54:32.408Z,4.30
2023-02-19T22:57:01.389Z,4.27
2023-02-19T22:59:28.096Z,4.33
2023-02-19T23:01:55.100Z,4.29
2023-02-19T23:04:25.282Z,4.22
2023-02-19T23:06:54.733Z,4.27
2023-02-19T23:09:28.234Z,4.16
2023-02-19T23:12:07.240Z,4.25
2023-02-19T23:14:38.747Z,4.22
2023-02-19T23:17:08.100Z,4.17
2023-02-19T23:19:39.576Z,4.16
2023-02-19T23:22:08.710Z,4.16
2023-02-19T23:24:35.320Z,4.16
2023-02-19T23:27:02.122Z,4.07
2023-02-19T23:29:31.006Z,4.08
2023-02-19T23:31:58.549Z,4.13
2023-02-19T23:34:25.165Z,4.03
2023-02-19T23:36:52.092Z,4.03
2023-02-19T23:39:21.284Z,3.97
2023-02-19T23:41:56.719Z,3.95
2023-02-19T23:44:23.767Z,3.93
2023-02-19T23:46:53.256Z,3.95
2023-02-19T23:49:20.042Z,3.83
2023-02-19T23:51:49.128Z,3.88
2023-02-19T23:54:18.177Z,3.88
2023-02-19T23:56:47.367Z,3.86
2023-02-19T23:59:14.278Z,4.00
